Time;durP1;ratioP1;P1;durP2;ratioP2;P2;SDS_P1;SDS_P2;PMS_P1;PMS_P2;Temp;Humidity;BMP_temperature;BMP_pressure;BME280_temperature;BME280_humidity;BME280_pressure;Samples;Min_cycle;Max_cycle;Signal;HPM_P1;HPM_P2
2021/03/16 00:01:26;;;;;;;24.87;16.50;;;;;;;4.59;83.97;98540.55;1733371;80;21131;-64
2021/03/16 00:03:56;;;;;;;23.43;16.73;;;;;;;4.56;83.93;98546.88;1736711;80;22197;-65
2021/03/16 00:06:28;;;;;;;24.70;17.60;;;;;;;4.56;83.86;98551.34;1736433;80;21156;-62
2021/03/16 00:08:55;;;;;;;24.97;17.50;;;;;;;4.56;83.87;98542.02;1739846;80;21090;-64
2021/03/16 00:11:22;;;;;;;18.43;14.30;;;;;;;4.56;83.85;98545.55;1735343;80;21546;-65
2021/03/16 00:13:49;;;;;;;24.43;17.40;;;;;;;4.56;83.73;98542.88;1739555;80;21127;-64
2021/03/16 00:16:18;;;;;;;23.83;16.47;;;;;;;4.55;83.59;98549.14;1738104;80;21562;-65
2021/03/16 00:18:45;;;;;;;24.03;16.37;;;;;;;4.52;83.50;98543.06;1740012;80;21130;-64
2021/03/16 00:21:13;;;;;;;25.70;18.40;;;;;;;4.49;83.53;98548.55;1738898;80;21520;-65
2021/03/16 00:23:41;;;;;;;22.73;16.80;;;;;;;4.47;83.50;98547.73;1738105;80;21154;-64
2021/03/16 00:26:08;;;;;;;22.73;17.97;;;;;;;4.45;83.40;98543.80;1741566;80;21135;-65
2021/03/16 00:28:35;;;;;;;27.63;18.20;;;;;;;4.42;83.41;98546.58;1738782;80;22308;-63
2021/03/16 00:31:02;;;;;;;21.23;16.97;;;;;;;4.41;83.35;98540.02;1734857;80;21230;-64
2021/03/16 00:33:31;;;;;;;25.23;17.20;;;;;;;4.42;83.45;98546.58;1737362;80;21182;-61
2021/03/16 00:35:58;;;;;;;19.63;15.23;;;;;;;4.42;83.46;98547.91;1736603;80;21230;-64
2021/03/16 00:38:27;;;;;;;27.57;17.93;;;;;;;4.43;83.40;98548.78;1737345;80;21182;-62
2021/03/16 00:40:54;;;;;;;23.37;15.90;;;;;;;4.44;83.56;98551.39;1736515;80;21421;-61
2021/03/16 00:43:21;;;;;;;25.37;17.90;;;;;;;4.46;83.69;98547.33;1741907;80;21695;-64
2021/03/16 00:45:48;;;;;;;22.70;17.43;;;;;;;4.47;83.69;98544.61;1738439;80;21166;-64
2021/03/16 00:48:18;;;;;;;27.90;20.93;;;;;;;4.49;83.76;98541.41;1738591;80;21632;-63
2021/03/16 00:50:47;;;;;;;35.27;23.27;;;;;;;4.52;83.85;98541.27;1741463;80;21565;-61
2021/03/16 00:53:14;;;;;;;40.10;24.47;;;;;;;4.53;83.87;98539.00;1741926;80;21237;-64
2021/03/16 00:55:43;;;;;;;43.77;25.57;;;;;;;4.53;83.85;98532.34;1736799;80;21170;-63
2021/03/16 00:58:12;;;;;;;43.37;24.50;;;;;;;4.55;83.77;98536.27;1743742;79;21173;-64
2021/03/16 01:00:39;;;;;;;44.40;25.83;;;;;;;4.56;83.77;98528.22;1772222;78;21185;-61
2021/03/16 01:03:09;;;;;;;34.93;22.03;;;;;;;4.59;83.76;98532.56;1762759;79;21216;-64
2021/03/16 01:05:37;;;;;;;29.53;19.37;;;;;;;4.60;83.74;98531.59;1758964;79;21939;-64
2021/03/16 01:08:05;;;;;;;27.70;17.87;;;;;;;4.61;83.76;98528.47;1759288;79;21197;-63
2021/03/16 01:10:33;;;;;;;31.17;20.27;;;;;;;4.61;83.82;98524.01;1762751;79;21265;-62
2021/03/16 01:13:01;;;;;;;31.00;20.33;;;;;;;4.60;83.81;98527.60;1758728;79;21217;-61
2021/03/16 01:15:29;;;;;;;29.57;21.13;;;;;;;4.59;83.78;98525.03;1758547;79;21209;-61
2021/03/16 01:17:56;;;;;;;28.90;18.67;;;;;;;4.56;83.72;98523.36;1759374;79;21819;-61
2021/03/16 01:22:34;;;;;;;28.50;18.53;;;;;;;4.55;83.67;98513.16;1797744;78;27426;-64
2021/03/16 01:25:01;;;;;;;26.60;16.23;;;;;;;4.48;83.65;98517.49;1764557;79;21174;-64
2021/03/16 01:27:29;;;;;;;24.77;17.97;;;;;;;4.45;83.66;98514.95;1769763;79;21243;-64
2021/03/16 01:29:56;;;;;;;24.53;17.30;;;;;;;4.45;83.67;98519.81;1772833;79;21513;-62
2021/03/16 01:32:24;;;;;;;25.77;16.87;;;;;;;4.46;83.62;98509.56;1771161;79;21100;-62
2021/03/16 01:34:52;;;;;;;27.30;18.03;;;;;;;4.45;83.53;98508.29;1767967;79;21375;-63
2021/03/16 01:37:19;;;;;;;26.30;19.70;;;;;;;4.42;83.49;98503.95;1768370;79;21064;-64
2021/03/16 01:39:48;;;;;;;29.97;21.03;;;;;;;4.38;83.46;98506.36;1764954;79;21354;-61
2021/03/16 01:42:16;;;;;;;30.17;18.63;;;;;;;4.32;83.39;98499.97;1755196;79;21144;-63
2021/03/16 01:44:45;;;;;;;25.70;16.87;;;;;;;4.28;83.39;98499.69;1735488;81;21116;-63
2021/03/16 01:47:16;;;;;;;24.10;16.27;;;;;;;4.24;83.36;98503.44;1737910;81;21167;-63
2021/03/16 01:49:44;;;;;;;20.73;14.67;;;;;;;4.22;83.36;98507.95;1735860;81;21099;-63
2021/03/16 01:52:11;;;;;;;25.17;16.07;;;;;;;4.18;83.34;98501.01;1707875;81;21214;-64
2021/03/16 01:54:40;;;;;;;25.50;15.43;;;;;;;4.17;83.33;98499.27;1736411;81;21194;-64
2021/03/16 01:57:09;;;;;;;25.83;16.00;;;;;;;4.17;83.30;98508.13;1739567;81;21497;-64
2021/03/16 01:59:55;;;;;;;25.20;15.97;;;;;;;4.13;83.28;98502.55;1738090;81;21211;-62
2021/03/16 02:02:41;;;;;;;26.67;18.03;;;;;;;4.10;83.29;98505.80;1715990;81;21143;-63
2021/03/16 02:05:27;;;;;;;23.37;18.00;;;;;;;4.07;83.21;98499.28;1737625;81;21851;-64
2021/03/16 02:08:39;;;;;;;23.43;17.10;;;;;;;4.02;83.20;98495.47;1733293;81;21870;-65
2021/03/16 02:12:00;;;;;;;23.07;16.07;;;;;;;3.98;83.15;98495.67;1735948;81;21231;-65
2021/03/16 02:14:50;;;;;;;22.73;15.93;;;;;;;3.93;83.16;98497.17;1738978;81;21198;-65
2021/03/16 02:17:37;;;;;;;21.47;14.87;;;;;;;3.90;83.18;98501.78;1716488;81;21167;-64
2021/03/16 02:20:58;;;;;;;23.57;15.33;;;;;;;3.88;83.21;98505.83;1737418;81;21213;-64
2021/03/16 02:24:09;;;;;;;20.63;14.20;;;;;;;3.86;83.15;98502.81;1708711;82;21944;-64
2021/03/16 02:27:16;;;;;;;21.37;15.37;;;;;;;3.84;83.15;98507.33;1701236;82;21542;-63
2021/03/16 02:30:05;;;;;;;21.00;14.07;;;;;;;3.78;83.04;98509.79;1677847;84;21196;-65
2021/03/16 02:32:53;;;;;;;19.67;15.37;;;;;;;3.70;83.02;98506.11;1680362;84;21131;-64
2021/03/16 02:35:40;;;;;;;22.50;15.13;;;;;;;3.65;82.98;98506.77;1678793;84;22105;-66
2021/03/16 02:38:32;;;;;;;20.23;13.80;;;;;;;3.64;82.99;98510.82;1680596;84;21531;-65
2021/03/16 02:41:19;;;;;;;21.80;14.03;;;;;;;3.61;82.96;98516.25;1679187;84;21256;-65
2021/03/16 02:44:05;;;;;;;19.53;14.90;;;;;;;3.61;82.96;98516.25;1682368;83;21119;-65
2021/03/16 02:46:52;;;;;;;19.83;14.50;;;;;;;3.60;82.87;98513.19;1660952;84;21622;-66
2021/03/16 02:49:41;;;;;;;23.30;16.73;;;;;;;3.58;82.81;98512.38;1685936;83;21423;-65
2021/03/16 02:52:26;;;;;;;22.13;16.13;;;;;;;3.53;82.79;98511.23;1678193;84;21559;-65
2021/03/16 02:55:13;;;;;;;19.80;14.33;;;;;;;3.51;82.75;98502.91;1683200;84;21138;-64
2021/03/16 02:57:59;;;;;;;22.33;13.80;;;;;;;3.49;82.79;98508.28;1679139;84;21563;-66
2021/03/16 03:00:44;;;;;;;17.20;13.00;;;;;;;3.49;82.70;98506.95;1679761;84;21191;-66
2021/03/16 03:03:31;;;;;;;17.13;12.27;;;;;;;3.49;82.67;98500.80;1682746;83;23205;-65
2021/03/16 03:06:16;;;;;;;17.13;12.03;;;;;;;3.49;82.65;98504.78;1676993;84;21231;-65
2021/03/16 03:09:05;;;;;;;18.87;13.03;;;;;;;3.47;82.58;98498.66;1681957;84;21518;-66
2021/03/16 03:11:51;;;;;;;20.07;14.77;;;;;;;3.45;82.57;98501.83;1682378;83;21564;-65
2021/03/16 03:14:37;;;;;;;23.73;16.60;;;;;;;3.40;82.56;98488.23;1702814;82;21116;-66
2021/03/16 03:17:25;;;;;;;18.93;14.97;;;;;;;3.38;82.50;98497.22;1709568;82;21944;-65
2021/03/16 03:20:11;;;;;;;21.73;14.13;;;;;;;3.32;82.47;98498.30;1680091;84;21183;-65
2021/03/16 03:23:16;;;;;;;20.20;14.70;;;;;;;3.29;82.48;98498.91;1663219;84;21144;-65
2021/03/16 03:26:07;;;;;;;18.00;11.77;;;;;;;3.28;82.45;98495.38;1719526;82;21108;-65
2021/03/16 03:28:53;;;;;;;16.93;13.03;;;;;;;3.26;82.50;98495.89;1724378;82;21124;-67
2021/03/16 03:31:42;;;;;;;18.37;13.30;;;;;;;3.25;82.42;98499.47;1719802;82;21204;-66
2021/03/16 03:34:28;;;;;;;20.43;15.17;;;;;;;3.26;82.39;98499.02;1719336;82;21228;-65
2021/03/16 03:37:14;;;;;;;17.60;13.10;;;;;;;3.24;82.32;98504.84;1685101;83;21191;-66
2021/03/16 03:40:04;;;;;;;21.87;13.93;;;;;;;3.18;82.27;98502.43;1722880;82;21207;-65
2021/03/16 03:42:51;;;;;;;19.40;14.23;;;;;;;3.07;82.30;98503.30;1722628;82;21179;-65
2021/03/16 03:45:37;;;;;;;20.70;13.27;;;;;;;3.00;82.34;98497.34;1717253;82;21380;-65
2021/03/16 03:48:23;;;;;;;17.67;12.03;;;;;;;2.98;82.38;98496.53;1727217;82;21583;-65
2021/03/16 03:51:09;;;;;;;17.47;11.93;;;;;;;2.93;82.41;98495.39;1720616;82;20981;-66
2021/03/16 03:53:54;;;;;;;17.07;12.07;;;;;;;2.92;82.46;98490.13;1720300;82;21449;-65
2021/03/16 03:56:40;;;;;;;16.57;12.27;;;;;;;2.91;82.47;98495.90;1721788;82;21583;-66
2021/03/16 03:59:27;;;;;;;18.70;12.23;;;;;;;2.90;82.47;98494.63;1720146;82;21936;-63
2021/03/16 04:02:13;;;;;;;21.57;14.40;;;;;;;2.88;82.50;98493.84;1721914;82;21195;-63
2021/03/16 04:04:59;;;;;;;17.27;13.43;;;;;;;2.85;82.41;98491.28;1703761;82;21211;-65
2021/03/16 04:07:45;;;;;;;21.37;13.67;;;;;;;2.83;82.37;98488.67;1717950;82;21219;-63
2021/03/16 04:10:35;;;;;;;18.40;12.90;;;;;;;2.82;82.27;98492.72;1718288;82;21619;-65
2021/03/16 04:13:18;;;;;;;18.27;12.17;;;;;;;2.81;82.18;98489.19;1721949;82;21624;-66
2021/03/16 04:16:06;;;;;;;17.77;12.33;;;;;;;2.78;82.17;98491.98;1726137;82;21148;-63
2021/03/16 04:18:52;;;;;;;15.63;11.90;;;;;;;2.79;82.18;98488.86;1721199;82;21187;-64
2021/03/16 04:21:39;;;;;;;15.83;10.60;;;;;;;2.80;82.11;98493.26;1722063;82;21227;-63
2021/03/16 04:24:25;;;;;;;15.33;11.80;;;;;;;2.76;82.00;98494.28;1699964;82;21210;-63
2021/03/16 04:27:10;;;;;;;17.83;13.17;;;;;;;2.72;81.94;98495.33;1729146;82;22672;-63
2021/03/16 04:29:57;;;;;;;18.20;13.77;;;;;;;2.68;81.85;98491.91;1726413;82;21198;-63
2021/03/16 04:32:45;;;;;;;16.37;12.33;;;;;;;2.65;81.74;98504.83;1727939;82;21152;-62
2021/03/16 04:35:31;;;;;;;18.10;11.67;;;;;;;2.60;81.69;98503.27;1727486;82;21614;-60
2021/03/16 04:38:17;;;;;;;18.93;11.77;;;;;;;2.58;81.75;98505.11;1727443;82;21175;-63
2021/03/16 04:41:04;;;;;;;20.10;11.90;;;;;;;2.59;81.67;98507.72;1730451;82;21417;-63
2021/03/16 04:43:50;;;;;;;18.37;12.13;;;;;;;2.59;81.58;98512.16;1727963;82;21210;-64
2021/03/16 04:46:35;;;;;;;26.30;15.83;;;;;;;2.58;81.49;98511.75;1729243;82;21622;-64
2021/03/16 04:49:23;;;;;;;28.57;17.33;;;;;;;2.56;81.38;98522.88;1667265;83;21240;-65
2021/03/16 04:52:08;;;;;;;21.30;12.77;;;;;;;2.52;81.43;98519.48;1671322;83;21187;-63
2021/03/16 04:54:54;;;;;;;19.13;11.13;;;;;;;2.54;81.42;98518.98;1691692;83;21840;-64
2021/03/16 04:57:40;;;;;;;17.00;10.40;;;;;;;2.57;81.27;98515.33;1695766;83;21211;-63
2021/03/16 05:00:26;;;;;;;14.73;10.80;;;;;;;2.57;81.18;98512.67;1692085;82;21168;-64
2021/03/16 05:03:12;;;;;;;16.67;11.47;;;;;;;2.58;81.06;98503.78;1667366;85;21223;-62
2021/03/16 05:05:59;;;;;;;22.23;11.27;;;;;;;2.58;80.95;98511.75;1669050;85;21228;-64
2021/03/16 05:08:45;;;;;;;16.90;11.33;;;;;;;2.56;80.88;98516.24;1665777;85;21400;-61
2021/03/16 05:11:33;;;;;;;18.17;11.23;;;;;;;2.54;80.83;98508.81;1691540;83;21152;-63
2021/03/16 05:14:18;;;;;;;15.33;10.73;;;;;;;2.53;80.82;98516.38;1671693;85;21774;-62
2021/03/16 05:17:04;;;;;;;21.10;11.10;;;;;;;2.52;80.72;98519.48;1667513;85;21223;-65
2021/03/16 05:19:50;;;;;;;15.10;9.70;;;;;;;2.55;80.57;98521.18;1671080;85;21188;-61
2021/03/16 05:22:36;;;;;;;12.10;8.40;;;;;;;2.53;80.58;98510.60;1693820;83;21729;-64
2021/03/16 05:25:24;;;;;;;18.73;11.03;;;;;;;2.54;80.35;98516.78;1663409;85;21212;-64
2021/03/16 05:28:09;;;;;;;15.67;10.93;;;;;;;2.53;80.43;98519.03;1663248;85;21241;-63
2021/03/16 05:30:55;;;;;;;20.97;11.60;;;;;;;2.54;80.26;98528.73;1664111;85;21287;-62
2021/03/16 05:33:40;;;;;;;20.93;12.17;;;;;;;2.52;80.27;98528.78;1724687;82;21215;-65
2021/03/16 05:36:26;;;;;;;16.50;10.53;;;;;;;2.55;80.21;98529.98;1718229;82;21224;-65
2021/03/16 05:39:13;;;;;;;19.83;10.23;;;;;;;2.57;80.20;98536.12;1721778;82;21159;-62
2021/03/16 05:41:59;;;;;;;16.67;9.87;;;;;;;2.63;80.22;98528.41;1724046;82;21194;-62
2021/03/16 05:44:46;;;;;;;14.20;10.17;;;;;;;2.72;80.17;98529.87;1639007;85;22832;-65
2021/03/16 05:47:33;;;;;;;17.20;11.47;;;;;;;2.80;79.84;98533.12;1700589;82;21594;-64
2021/03/16 05:50:19;;;;;;;14.70;11.13;;;;;;;2.79;79.73;98524.28;1699924;82;21289;-61
2021/03/16 05:53:05;;;;;;;18.10;12.03;;;;;;;2.81;79.57;98531.70;1700607;82;21271;-62
2021/03/16 05:55:51;;;;;;;18.60;10.30;;;;;;;2.78;79.37;98530.97;1697751;82;21170;-63
2021/03/16 05:58:36;;;;;;;18.90;11.27;;;;;;;2.80;79.49;98528.67;1699211;82;21231;-65
2021/03/16 06:01:23;;;;;;;12.73;9.37;;;;;;;2.87;79.34;98526.19;1701393;82;21199;-63
2021/03/16 06:04:09;;;;;;;19.47;10.70;;;;;;;2.91;79.12;98525.59;1698553;82;21458;-62
2021/03/16 06:06:58;;;;;;;16.90;11.03;;;;;;;2.92;79.08;98529.99;1702507;82;21139;-63
2021/03/16 06:09:45;;;;;;;21.67;11.80;;;;;;;2.96;79.16;98524.52;1703225;82;21144;-63
2021/03/16 06:12:34;;;;;;;20.90;12.97;;;;;;;3.02;79.05;98522.95;1699659;82;21777;-63
2021/03/16 06:15:21;;;;;;;16.13;9.80;;;;;;;3.09;78.90;98525.38;1699490;82;21206;-63
2021/03/16 06:18:10;;;;;;;16.27;11.00;;;;;;;3.12;78.65;98522.62;1700509;82;22362;-64
2021/03/16 06:21:00;;;;;;;18.13;10.33;;;;;;;3.16;78.54;98527.74;1701657;82;21227;-64
2021/03/16 06:23:55;;;;;;;40.20;19.37;;;;;;;3.18;78.54;98539.66;1702677;82;21136;-65
2021/03/16 06:26:47;;;;;;;29.80;15.73;;;;;;;3.27;78.60;98545.95;1702586;82;21132;-63
2021/03/16 06:29:42;;;;;;;22.57;13.07;;;;;;;3.39;78.62;98558.80;1703982;82;21786;-62
2021/03/16 06:32:36;;;;;;;20.30;12.07;;;;;;;3.47;78.46;98559.84;1698252;84;23617;-62
2021/03/16 06:35:25;;;;;;;25.23;13.80;;;;;;;3.49;77.92;98544.20;1698503;82;21172;-61
2021/03/16 06:38:11;;;;;;;18.10;13.23;;;;;;;3.45;77.89;98552.37;1701176;82;21453;-61
2021/03/16 06:41:15;;;;;;;19.77;12.63;;;;;;;3.42;77.81;98555.55;1702586;82;21216;-62
2021/03/16 06:44:02;;;;;;;23.80;12.97;;;;;;;3.45;77.96;98547.92;1686117;84;21593;-61
2021/03/16 06:46:57;;;;;;;23.00;12.37;;;;;;;3.57;78.03;98555.44;1689314;83;21349;-62
2021/03/16 06:49:43;;;;;;;38.67;18.95;;;;;;;3.65;77.73;98552.02;1684588;83;21187;-63
2021/03/16 06:52:29;;;;;;;28.83;15.70;;;;;;;3.74;77.85;98554.77;1687206;83;21481;-62
2021/03/16 06:55:16;;;;;;;30.63;16.90;;;;;;;3.83;77.58;98547.72;1685188;83;21195;-63
2021/03/16 06:58:08;;;;;;;33.17;17.13;;;;;;;3.90;77.35;98553.69;1685903;83;22045;-61
2021/03/16 07:01:10;;;;;;;25.67;14.37;;;;;;;3.96;77.20;98544.11;1687360;83;21642;-60
2021/03/16 07:03:59;;;;;;;25.87;12.80;;;;;;;4.04;77.17;98535.34;1685861;83;21198;-61
2021/03/16 07:06:45;;;;;;;20.43;11.23;;;;;;;4.14;77.02;98542.03;1683854;83;21404;-64
2021/03/16 07:09:32;;;;;;;19.50;11.50;;;;;;;4.21;76.92;98535.52;1685519;83;21164;-64
2021/03/16 07:12:21;;;;;;;22.77;13.40;;;;;;;4.32;76.76;98539.94;1688575;83;22022;-61
2021/03/16 07:15:09;;;;;;;20.43;13.40;;;;;;;4.38;76.44;98537.00;1690740;84;21415;-58
2021/03/16 07:17:55;;;;;;;24.83;12.80;;;;;;;4.43;76.40;98534.99;1685310;83;21200;-61
2021/03/16 07:20:41;;;;;;;20.63;11.67;;;;;;;4.48;76.15;98532.16;1686569;83;21148;-60
2021/03/16 07:23:29;;;;;;;28.87;12.17;;;;;;;4.58;76.07;98536.63;1684870;83;21216;-60
2021/03/16 07:26:16;;;;;;;22.70;11.20;;;;;;;4.64;75.62;98543.01;1685660;83;21183;-63
2021/03/16 07:29:05;;;;;;;26.30;13.87;;;;;;;4.73;75.47;98535.95;1669821;83;21167;-62
2021/03/16 07:31:50;;;;;;;22.13;12.97;;;;;;;4.84;75.13;98529.22;1687928;84;21132;-60
2021/03/16 07:34:36;;;;;;;21.27;12.30;;;;;;;4.89;74.90;98537.00;1687622;83;21144;-59
2021/03/16 07:37:23;;;;;;;24.27;12.23;;;;;;;4.93;74.66;98537.27;1687543;83;21523;-65
2021/03/16 07:40:10;;;;;;;19.10;11.07;;;;;;;5.02;74.74;98530.16;1682469;83;21272;-61
2021/03/16 07:42:56;;;;;;;26.67;11.77;;;;;;;5.18;74.64;98529.89;1687595;83;21478;-60
2021/03/16 07:45:43;;;;;;;20.60;11.07;;;;;;;5.30;74.21;98539.98;1696045;83;21195;-63
2021/03/16 07:48:30;;;;;;;19.13;11.57;;;;;;;5.41;74.33;98535.95;1696694;82;21247;-62
2021/03/16 07:51:32;;;;;;;18.97;11.90;;;;;;;5.52;73.76;98523.84;1679861;82;21629;-64
2021/03/16 07:54:21;;;;;;;20.57;12.17;;;;;;;5.61;73.55;98515.88;1706521;82;21191;-64
2021/03/16 07:57:07;;;;;;;20.00;10.73;;;;;;;5.72;72.95;98514.87;1711327;82;21673;-62
2021/03/16 08:00:04;;;;;;;21.37;9.93;;;;;;;5.82;72.99;98511.28;1702400;82;21223;-64
2021/03/16 08:03:00;;;;;;;19.27;11.03;;;;;;;5.92;72.45;98506.80;1702057;82;21226;-63
2021/03/16 08:05:46;;;;;;;14.60;9.73;;;;;;;6.02;71.99;98506.75;1702662;82;21211;-64
2021/03/16 08:08:40;;;;;;;23.23;12.57;;;;;;;6.08;71.70;98509.10;1699313;82;21219;-61
2021/03/16 08:11:41;;;;;;;18.10;10.87;;;;;;;6.16;71.62;98499.83;1598674;86;21323;-60
2021/03/16 08:14:30;;;;;;;17.73;11.30;;;;;;;6.26;71.66;98507.32;1615419;87;28409;-62
2021/03/16 08:17:30;;;;;;;22.30;11.77;;;;;;;6.32;70.87;98506.13;1601286;88;21302;-62
2021/03/16 08:20:26;;;;;;;18.30;10.37;;;;;;;6.33;70.48;98506.53;1585660;88;21170;-62
2021/03/16 08:23:12;;;;;;;;;;;;;;;6.36;70.51;98507.72;1595313;88;22250;-62
2021/03/16 08:26:02;;;;;;;17.33;8.83;;;;;;;6.43;70.16;98513.14;1594590;88;23494;-60
2021/03/16 08:28:49;;;;;;;19.40;11.67;;;;;;;6.50;70.07;98502.52;1611257;87;21213;-60
2021/03/16 08:31:38;;;;;;;18.17;10.77;;;;;;;6.59;69.82;98506.06;1649282;85;21758;-60
2021/03/16 08:34:26;;;;;;;16.73;11.67;;;;;;;6.63;69.59;98506.31;1646225;85;21241;-61
2021/03/16 08:37:27;;;;;;;17.20;10.97;;;;;;;6.68;69.11;98497.56;1646887;85;21510;-61
2021/03/16 08:40:22;;;;;;;20.03;11.07;;;;;;;6.71;69.03;98501.42;1646321;85;21243;-63
2021/03/16 08:43:10;;;;;;;16.83;10.50;;;;;;;6.78;69.07;98501.48;1638693;85;21171;-61
2021/03/16 08:45:56;;;;;;;19.37;10.30;;;;;;;6.80;68.46;98506.26;1637620;85;21188;-61
2021/03/16 08:48:43;;;;;;;22.73;11.00;;;;;;;6.80;68.35;98502.75;1639633;85;21211;-61
2021/03/16 08:51:30;;;;;;;17.60;9.80;;;;;;;6.83;68.21;98490.53;1633131;85;21657;-61
2021/03/16 08:54:26;;;;;;;20.30;10.40;;;;;;;6.93;68.05;98498.94;1632739;85;22689;-61
2021/03/16 08:57:24;;;;;;;17.63;11.00;;;;;;;6.97;68.17;98492.49;1636064;85;21239;-63
2021/03/16 09:00:12;;;;;;;19.83;10.93;;;;;;;7.01;68.08;98486.02;1636606;85;21197;-61
2021/03/16 09:02:58;;;;;;;18.17;11.57;;;;;;;7.00;67.97;98490.50;1623080;85;21250;-65
2021/03/16 09:05:44;;;;;;;23.57;12.67;;;;;;;7.00;67.68;98498.52;1637640;85;21208;-62
2021/03/16 09:08:30;;;;;;;16.63;10.40;;;;;;;6.96;67.79;98487.61;1634303;85;21244;-64
2021/03/16 09:11:32;;;;;;;15.70;10.50;;;;;;;6.93;67.51;98492.25;1639579;85;21217;-62
2021/03/16 09:14:20;;;;;;;19.77;10.13;;;;;;;6.85;67.57;98495.33;1638399;85;21556;-64
2021/03/16 09:17:05;;;;;;;20.83;10.43;;;;;;;6.84;67.62;98485.11;1641730;85;21917;-67
2021/03/16 09:19:52;;;;;;;31.57;13.20;;;;;;;6.84;67.71;98484.23;1636097;85;21696;-61
2021/03/16 09:22:39;;;;;;;18.83;9.93;;;;;;;6.90;67.81;98485.72;1636527;85;21432;-60
2021/03/16 09:25:32;;;;;;;13.97;8.70;;;;;;;6.99;67.85;98491.91;1636393;85;21247;-61
2021/03/16 09:28:21;;;;;;;15.97;10.07;;;;;;;7.08;67.87;98485.59;1637489;85;21644;-60
2021/03/16 09:31:06;;;;;;;18.37;11.67;;;;;;;7.20;67.96;98496.12;1636176;85;21830;-64
2021/03/16 09:33:54;;;;;;;26.17;14.10;;;;;;;7.31;67.90;98499.08;1635902;85;21228;-62
2021/03/16 09:36:58;;;;;;;18.20;10.80;;;;;;;7.42;67.91;98502.48;1639652;85;21399;-61
2021/03/16 09:39:33;;;;;;;16.37;10.10;;;;;;;7.51;67.45;98509.54;1638841;85;21204;-61
2021/03/16 09:42:05;;;;;;;16.27;10.77;;;;;;;7.56;67.13;98503.47;1636210;85;21255;-62
2021/03/16 09:44:40;;;;;;;19.47;11.13;;;;;;;7.59;67.30;98509.11;1644557;85;21221;-60
2021/03/16 09:47:09;;;;;;;15.63;9.05;;;;;;;7.67;67.05;98520.73;1636264;85;21225;-65
2021/03/16 09:49:40;;;;;;;11.63;7.70;;;;;;;7.73;66.94;98521.27;1638787;85;21387;-61
2021/03/16 09:52:10;;;;;;;13.57;8.33;;;;;;;7.80;66.95;98519.97;1638769;85;21245;-62
2021/03/16 09:54:43;;;;;;;16.90;8.63;;;;;;;7.84;66.90;98516.16;1605715;87;21227;-61
2021/03/16 09:57:13;;;;;;;16.20;8.38;;;;;;;7.88;66.46;98519.53;1637732;85;21174;-62
2021/03/16 09:59:43;;;;;;;14.65;9.25;;;;;;;7.90;66.42;98510.94;1640903;85;21204;-63
2021/03/16 10:02:11;;;;;;;16.10;10.00;;;;;;;7.89;66.32;98522.61;1638613;85;21748;-60
2021/03/16 10:04:49;;;;;;;16.67;10.15;;;;;;;7.86;66.31;98518.28;1639357;85;21249;-63
2021/03/16 10:07:30;;;;;;;14.87;9.30;;;;;;;7.82;66.27;98518.55;1641089;85;21681;-59
2021/03/16 10:10:15;;;;;;;15.58;10.13;;;;;;;7.73;66.47;98522.61;1634680;85;21240;-60
2021/03/16 10:13:02;;;;;;;11.23;9.03;;;;;;;7.66;66.29;98519.00;1627944;85;21237;-61
2021/03/16 10:15:36;;;;;;;11.73;8.50;;;;;;;7.62;66.40;98508.95;1639565;85;21407;-59
2021/03/16 10:18:06;;;;;;;13.72;8.60;;;;;;;7.57;66.42;98507.02;1641149;85;21206;-59
2021/03/16 10:20:36;;;;;;;11.18;9.13;;;;;;;7.49;66.69;98502.06;1642518;85;21145;-60
2021/03/16 10:23:06;;;;;;;10.50;7.43;;;;;;;7.44;67.03;98506.81;1640963;85;21699;-59
2021/03/16 10:25:37;;;;;;;14.83;8.15;;;;;;;7.44;67.19;98501.46;1639209;85;21820;-62
2021/03/16 10:28:08;;;;;;;14.40;9.30;;;;;;;7.41;66.94;98496.27;1640334;85;21668;-63
2021/03/16 10:30:39;;;;;;;15.85;9.53;;;;;;;7.30;67.15;98500.03;1636720;85;21232;-60
2021/03/16 10:33:08;;;;;;;14.97;9.73;;;;;;;7.16;67.37;98505.25;1639319;85;21535;-60
2021/03/16 10:35:38;;;;;;;15.73;9.03;;;;;;;7.09;67.60;98504.72;1641605;85;22182;-61
2021/03/16 10:38:07;;;;;;;16.63;9.93;;;;;;;7.07;67.89;98511.09;1642100;85;21696;-59
2021/03/16 10:40:35;;;;;;;16.90;9.43;;;;;;;7.07;68.15;98503.06;1643751;85;21600;-61
2021/03/16 10:43:03;;;;;;;16.70;9.43;;;;;;;7.07;68.40;98509.75;1641825;85;21230;-61
2021/03/16 10:45:31;;;;;;;12.27;8.47;;;;;;;7.06;68.46;98498.19;1642328;85;21541;-60
2021/03/16 10:47:59;;;;;;;14.23;8.78;;;;;;;7.06;68.69;98508.89;1642904;85;21220;-62
2021/03/16 10:50:27;;;;;;;14.00;8.43;;;;;;;7.04;68.76;98507.27;1643559;85;21651;-62
2021/03/16 10:52:56;;;;;;;16.43;11.17;;;;;;;7.01;68.80;98500.73;1638929;85;22497;-62
2021/03/16 10:55:23;;;;;;;14.60;9.40;;;;;;;6.92;68.71;98514.13;1642794;85;21237;-59
2021/03/16 10:57:50;;;;;;;14.37;10.17;;;;;;;6.83;68.91;98511.45;1642873;85;21193;-61
2021/03/16 11:00:19;;;;;;;18.67;10.30;;;;;;;6.79;69.18;98513.92;1642822;85;21247;-63
2021/03/16 11:02:48;;;;;;;15.47;10.73;;;;;;;6.77;69.46;98515.80;1643203;85;21663;-60
2021/03/16 11:05:16;;;;;;;19.27;13.73;;;;;;;6.78;69.74;98504.64;1641242;85;21410;-62
2021/03/16 11:07:45;;;;;;;21.67;15.27;;;;;;;6.80;69.99;98494.73;1642392;85;21208;-62
2021/03/16 11:10:13;;;;;;;18.67;14.77;;;;;;;6.73;70.33;98495.97;1642998;85;21229;-62
2021/03/16 11:12:41;;;;;;;19.00;14.30;;;;;;;6.73;70.40;98495.97;1651666;85;21233;-60
2021/03/16 11:15:10;;;;;;;20.17;13.93;;;;;;;6.77;70.32;98488.19;1649476;85;21232;-61
2021/03/16 11:17:37;;;;;;;16.27;11.53;;;;;;;6.83;70.31;98487.39;1647927;85;22106;-61
2021/03/16 11:20:07;;;;;;;14.50;10.47;;;;;;;6.89;69.65;98480.00;1645877;85;21491;-63
2021/03/16 11:22:35;;;;;;;15.17;10.43;;;;;;;6.92;69.71;98489.17;1650582;85;21245;-59
2021/03/16 11:25:03;;;;;;;14.23;10.30;;;;;;;7.01;69.55;98488.69;1649596;85;22868;-60
2021/03/16 11:27:30;;;;;;;16.40;8.90;;;;;;;7.11;69.14;98488.12;1645077;85;21197;-60
2021/03/16 11:29:57;;;;;;;15.77;10.50;;;;;;;7.18;68.67;98487.30;1651095;85;21382;-64
2021/03/16 11:32:25;;;;;;;17.53;11.67;;;;;;;7.21;68.31;98479.98;1648629;85;21241;-64
2021/03/16 11:35:11;;;;;;;17.17;11.27;;;;;;;7.21;68.24;98477.31;1649263;85;22771;-62
2021/03/16 11:37:58;;;;;;;12.10;9.53;;;;;;;7.25;68.43;98479.80;1647569;85;21259;-60
2021/03/16 11:40:44;;;;;;;15.67;9.57;;;;;;;7.29;68.22;98485.38;1648145;85;21611;-60
2021/03/16 11:43:30;;;;;;;16.47;9.93;;;;;;;7.28;68.14;98479.17;1644721;85;22545;-61
2021/03/16 11:46:17;;;;;;;12.73;9.47;;;;;;;7.32;68.12;98475.83;1648578;85;21228;-62
2021/03/16 11:49:03;;;;;;;17.03;9.70;;;;;;;7.37;68.25;98484.02;1646278;85;21209;-59
2021/03/16 11:51:49;;;;;;;17.27;11.60;;;;;;;7.41;68.20;98478.86;1647190;85;21240;-62
2021/03/16 11:54:35;;;;;;;12.57;9.50;;;;;;;7.45;68.31;98469.73;1649658;85;21229;-63
2021/03/16 11:57:21;;;;;;;16.07;9.97;;;;;;;7.52;68.53;98467.09;1652051;85;21232;-62
2021/03/16 12:00:08;;;;;;;18.03;10.40;;;;;;;7.62;68.29;98473.27;1652970;85;21845;-62
2021/03/16 12:02:54;;;;;;;17.17;10.27;;;;;;;7.71;68.42;98472.75;1656626;85;21022;-58
2021/03/16 12:05:40;;;;;;;12.23;7.63;;;;;;;7.77;68.06;98469.23;1648014;85;21249;-59
2021/03/16 12:08:28;;;;;;;13.20;7.28;;;;;;;7.86;68.21;98453.11;1616029;86;21119;-63
2021/03/16 12:11:15;;;;;;;14.28;8.90;;;;;;;7.98;68.10;98468.49;1614263;86;21566;-59
2021/03/16 12:14:02;;;;;;;14.20;9.00;;;;;;;8.08;67.92;98466.98;1587384;88;21938;-62
2021/03/16 12:16:47;;;;;;;13.10;9.10;;;;;;;8.14;67.75;98465.30;1642479;85;21544;-61
2021/03/16 12:19:33;;;;;;;13.35;8.80;;;;;;;8.19;67.62;98461.86;1638336;85;21661;-61
2021/03/16 12:22:19;;;;;;;15.00;9.15;;;;;;;8.26;67.44;98459.20;1633184;85;22079;-61
2021/03/16 12:25:06;;;;;;;11.50;9.18;;;;;;;8.29;67.17;98458.16;1637072;85;22171;-58
2021/03/16 12:27:53;;;;;;;13.58;9.10;;;;;;;8.29;66.75;98459.50;1636046;85;21237;-60
2021/03/16 12:30:39;;;;;;;11.60;8.60;;;;;;;8.24;66.64;98459.80;1636882;85;21236;-60
2021/03/16 12:33:25;;;;;;;13.55;9.05;;;;;;;8.23;66.82;98458.06;1600843;87;21778;-62
2021/03/16 12:36:11;;;;;;;11.75;6.75;;;;;;;8.28;66.78;98460.45;1609369;86;21248;-60
2021/03/16 12:38:57;;;;;;;13.20;7.78;;;;;;;8.29;66.68;98466.20;1581856;88;21790;-63